createdAt,value
2022-11-22T00:04:32.845Z,30.60
2022-11-22T00:12:54.686Z,30.50
2022-11-22T00:21:16.273Z,30.50
2022-11-22T00:29:37.953Z,28.50
2022-11-22T00:38:15.074Z,29.20
2022-11-22T00:46:38.271Z,30.60
2022-11-22T00:55:01.286Z,28.90
2022-11-22T01:03:24.740Z,31.10
2022-11-22T01:11:47.972Z,33.40
2022-11-22T01:20:11.104Z,32.40
2022-11-22T01:28:34.132Z,31.30
2022-11-22T01:36:58.025Z,35.00
2022-11-22T01:45:43.412Z,30.20
2022-11-22T01:54:11.760Z,31.50
2022-11-22T02:02:35.853Z,31.50
2022-11-22T02:11:01.733Z,31.30
2022-11-22T02:19:44.783Z,29.00
2022-11-22T02:28:11.804Z,33.20
2022-11-22T02:36:47.177Z,30.50
2022-11-22T02:45:10.701Z,28.90
2022-11-22T02:53:33.783Z,33.80
2022-11-22T03:02:02.851Z,29.20
2022-11-22T03:10:26.732Z,33.90
2022-11-22T03:18:49.676Z,31.70
2022-11-22T03:27:12.691Z,36.90
2022-11-22T03:35:35.919Z,30.80
2022-11-22T03:43:58.851Z,31.90
2022-11-22T03:52:21.894Z,31.80
2022-11-22T04:00:44.911Z,32.80
2022-11-22T04:09:08.378Z,31.60
2022-11-22T04:17:40.530Z,32.70
2022-11-22T04:26:03.744Z,34.70
2022-11-22T04:34:26.915Z,33.90
2022-11-22T04:43:08.811Z,34.10
2022-11-22T04:51:50.629Z,31.90
2022-11-22T05:00:13.819Z,35.20
2022-11-22T05:08:37.087Z,37.00
2022-11-22T12:32:29.726Z,40.80
2022-11-22T12:49:35.532Z,45.90
2022-11-22T12:58:20.782Z,39.00
2022-11-22T13:07:08.094Z,37.70
2022-11-22T13:15:35.980Z,44.60
2022-11-22T13:24:36.871Z,37.70
2022-11-22T13:33:01.043Z,37.80
2022-11-22T13:41:29.469Z,39.50
2022-11-22T13:49:54.125Z,42.50
2022-11-22T13:58:26.518Z,46.70
2022-11-22T14:07:05.146Z,40.00
2022-11-22T14:15:34.323Z,45.50
2022-11-22T14:24:39.794Z,39.70
2022-11-22T14:33:19.127Z,48.80
2022-11-22T14:41:43.936Z,43.40
2022-11-22T14:50:27.830Z,37.80
2022-11-22T14:59:30.778Z,29.50
2022-11-22T15:09:16.794Z,30.00
2022-11-22T16:00:45.083Z,33.30
2022-11-22T16:09:28.664Z,35.40
2022-11-22T16:18:13.039Z,36.00
2022-11-22T16:26:36.105Z,40.30
2022-11-22T16:35:27.389Z,39.20
2022-11-22T16:43:42.203Z,34.30
2022-11-22T16:52:05.284Z,33.00
2022-11-22T17:00:30.549Z,33.10
2022-11-22T17:08:56.303Z,35.60
2022-11-22T17:17:20.461Z,37.50
2022-11-22T17:25:43.571Z,41.20
2022-11-22T17:34:06.725Z,37.00
2022-11-22T17:42:29.854Z,31.50
2022-11-22T17:50:52.912Z,38.10
2022-11-22T17:59:16.087Z,31.90
2022-11-22T18:07:39.918Z,34.50
2022-11-22T18:16:07.961Z,32.50
2022-11-22T18:24:31.196Z,33.60
2022-11-22T18:32:54.339Z,37.60
2022-11-22T18:41:18.023Z,43.50
2022-11-22T18:49:41.125Z,38.40
2022-11-22T18:58:06.744Z,39.70
2022-11-22T19:06:30.405Z,31.70
2022-11-22T19:14:57.117Z,31.10
2022-11-22T19:23:20.198Z,30.90
2022-11-22T19:31:43.377Z,37.90
2022-11-22T19:40:07.569Z,42.20
2022-11-22T19:48:31.444Z,38.60
2022-11-22T20:59:06.719Z,35.50
2022-11-22T21:07:29.215Z,40.60
2022-11-22T21:16:15.633Z,38.60
2022-11-22T21:24:45.203Z,38.10
2022-11-22T21:33:07.415Z,35.90
2022-11-22T21:41:40.000Z,40.20
2022-11-22T21:50:07.211Z,33.80
2022-11-22T21:58:35.705Z,33.10
2022-11-22T22:07:52.023Z,34.80
2022-11-22T22:16:18.068Z,34.10
2022-11-22T22:24:43.347Z,29.10
2022-11-22T22:33:05.380Z,32.20
